Time;durP1;ratioP1;P1;durP2;ratioP2;P2;SDS_P1;SDS_P2;PMS_P1;PMS_P2;Temp;Humidity;BMP_temperature;BMP_pressure;BME280_temperature;BME280_humidity;BME280_pressure;Samples;Min_cycle;Max_cycle;Signal;HPM_P1;HPM_P2
2021/06/01 00:00:12;;;;;;;1.65;1.08;;;16.90;71.00;;;;;;5051378;28;20069;-70
2021/06/01 00:02:38;;;;;;;1.40;1.10;;;16.90;71.00;;;;;;5039169;28;20043;-70
2021/06/01 00:05:30;;;;;;;3.08;1.00;;;16.90;71.00;;;;;;5043818;28;20045;-70
2021/06/01 00:07:58;;;;;;;1.48;1.08;;;16.80;71.00;;;;;;5046988;28;20131;-70
2021/06/01 00:10:25;;;;;;;1.48;1.10;;;16.80;70.90;;;;;;5046321;28;20052;-70
2021/06/01 00:12:51;;;;;;;2.58;1.17;;;16.70;70.90;;;;;;5066244;28;20077;-70
2021/06/01 00:15:18;;;;;;;1.70;1.00;;;16.70;70.90;;;;;;5046172;28;20162;-70
2021/06/01 00:17:45;;;;;;;1.92;1.20;;;16.60;70.90;;;;;;5050056;28;20042;-70
2021/06/01 00:20:12;;;;;;;1.50;1.30;;;16.60;70.80;;;;;;5035945;28;20087;-70
2021/06/01 00:22:39;;;;;;;1.27;0.98;;;16.50;70.60;;;;;;5041070;28;20081;-70
2021/06/01 00:25:07;;;;;;;1.67;1.10;;;16.60;70.60;;;;;;5044035;28;20551;-70
2021/06/01 00:27:34;;;;;;;1.83;0.90;;;16.60;70.50;;;;;;5043988;28;20130;-70
2021/06/01 00:30:01;;;;;;;1.55;1.05;;;16.60;70.60;;;;;;5036339;28;20118;-70
2021/06/01 00:32:28;;;;;;;1.33;0.90;;;16.50;70.40;;;;;;5048741;28;20054;-70
2021/06/01 00:34:55;;;;;;;2.22;1.00;;;16.50;70.30;;;;;;5047363;28;20045;-70
2021/06/01 00:37:46;;;;;;;1.65;1.00;;;16.50;70.30;;;;;;5050512;28;20073;-70
2021/06/01 00:40:14;;;;;;;1.75;1.00;;;16.40;70.20;;;;;;5043683;28;20044;-70
2021/06/01 00:42:40;;;;;;;1.23;1.00;;;16.40;70.10;;;;;;5026170;28;20499;-70
2021/06/01 00:45:08;;;;;;;1.33;1.00;;;16.40;70.10;;;;;;5038619;28;20118;-70
2021/06/01 00:47:34;;;;;;;2.03;1.10;;;16.40;70.10;;;;;;5057475;28;20061;-70
2021/06/01 00:50:01;;;;;;;1.15;0.80;;;16.40;70.10;;;;;;5054355;28;20049;-70
2021/06/01 00:52:28;;;;;;;1.95;1.00;;;16.30;70.10;;;;;;5060574;28;20076;-70
2021/06/01 00:54:55;;;;;;;1.73;1.00;;;16.30;70.00;;;;;;5050973;28;20500;-70
2021/06/01 00:57:21;;;;;;;1.92;1.20;;;16.30;70.00;;;;;;5039179;28;20476;-70
2021/06/01 00:59:48;;;;;;;3.08;1.02;;;16.30;70.00;;;;;;5048957;28;20049;-70
2021/06/01 01:02:15;;;;;;;1.95;1.00;;;16.30;69.90;;;;;;5042335;28;20123;-70
2021/06/01 01:04:42;;;;;;;3.63;0.85;;;16.30;69.90;;;;;;5039669;28;20496;-70
2021/06/01 01:07:20;;;;;;;1.73;1.00;;;16.20;69.70;;;;;;5038928;28;20124;-70
2021/06/01 01:09:49;;;;;;;1.40;1.02;;;16.20;69.70;;;;;;5045105;28;20194;-70
2021/06/01 01:12:25;;;;;;;2.63;1.05;;;16.20;69.60;;;;;;5030720;28;20068;-70
2021/06/01 01:15:00;;;;;;;1.55;0.85;;;16.20;69.60;;;;;;5051403;28;20540;-70
2021/06/01 01:17:47;;;;;;;1.00;0.90;;;16.20;69.50;;;;;;5063026;28;20148;-70
2021/06/01 01:20:41;;;;;;;2.15;1.08;;;16.20;69.50;;;;;;5039572;28;20077;-70
2021/06/01 01:23:16;;;;;;;2.30;0.98;;;16.10;69.20;;;;;;5038465;28;20084;-70
2021/06/01 01:25:58;;;;;;;1.50;1.10;;;16.20;69.20;;;;;;5031223;28;20084;-70
2021/06/01 01:28:43;;;;;;;2.40;0.98;;;16.20;69.10;;;;;;5029528;28;20084;-70
2021/06/01 01:31:26;;;;;;;1.38;0.95;;;16.20;69.00;;;;;;5042941;28;20083;-70
2021/06/01 01:33:53;;;;;;;1.35;0.90;;;16.20;68.90;;;;;;5034209;28;20056;-70
2021/06/01 01:36:20;;;;;;;2.67;0.98;;;16.20;68.80;;;;;;5044611;28;20103;-70
2021/06/01 01:38:48;;;;;;;1.47;1.00;;;16.20;68.80;;;;;;5045831;28;20072;-70
2021/06/01 01:41:16;;;;;;;1.10;0.90;;;16.10;68.60;;;;;;5047672;28;20307;-70
2021/06/01 01:43:45;;;;;;;2.00;0.80;;;16.10;68.60;;;;;;5040793;28;20073;-70
2021/06/01 01:46:22;;;;;;;2.35;1.02;;;16.10;68.50;;;;;;5042556;28;20107;-70
2021/06/01 01:49:00;;;;;;;0.75;0.70;;;16.10;68.50;;;;;;5061161;28;20405;-70
2021/06/01 01:51:38;;;;;;;1.58;0.98;;;16.10;68.40;;;;;;5057690;28;20476;-70
2021/06/01 01:54:13;;;;;;;1.73;0.90;;;16.10;68.40;;;;;;5033043;28;20112;-70
2021/06/01 01:56:51;;;;;;;1.77;1.02;;;16.10;68.30;;;;;;5043208;28;20088;-70
2021/06/01 01:59:25;;;;;;;1.25;0.90;;;16.10;68.20;;;;;;5018624;28;20080;-70
2021/06/01 02:01:53;;;;;;;2.47;0.90;;;16.10;68.20;;;;;;5019839;28;20085;-70
2021/06/01 02:04:26;;;;;;;1.17;0.90;;;16.10;68.10;;;;;;5028436;28;20052;-70
2021/06/01 02:06:54;;;;;;;0.88;0.80;;;16.10;68.10;;;;;;5026108;28;20124;-70
2021/06/01 02:09:27;;;;;;;1.17;0.90;;;16.10;68.10;;;;;;5031517;28;20087;-70
2021/06/01 02:11:54;;;;;;;2.53;1.08;;;16.10;68.00;;;;;;5023566;28;20128;-70
2021/06/01 02:14:22;;;;;;;1.45;0.90;;;16.10;68.00;;;;;;5025064;28;20080;-69
2021/06/01 02:16:50;;;;;;;1.20;0.80;;;16.10;67.90;;;;;;5024936;28;20107;-70
2021/06/01 02:19:19;;;;;;;0.70;0.70;;;16.00;67.80;;;;;;5049985;28;20115;-70
2021/06/01 02:24:31;;;;;;;1.42;0.90;;;16.00;68.00;;;;;;5024709;28;20045;-71
2021/06/01 02:27:12;;;;;;;2.67;1.00;;;15.90;68.00;;;;;;5028265;28;20072;-70
2021/06/01 02:30:00;;;;;;;1.15;0.77;;;15.80;68.00;;;;;;5008184;28;20046;-70
2021/06/01 02:32:34;;;;;;;1.00;0.80;;;15.70;68.10;;;;;;5022034;28;20452;-70
2021/06/01 02:35:08;;;;;;;1.08;0.80;;;15.60;68.30;;;;;;5022740;28;20108;-70
2021/06/01 02:37:40;;;;;;;1.13;0.90;;;15.50;68.50;;;;;;5020514;28;20103;-70
2021/06/01 02:40:09;;;;;;;1.98;1.10;;;15.40;68.90;;;;;;5028880;28;20128;-70
2021/06/01 02:42:38;;;;;;;1.27;0.90;;;15.30;69.00;;;;;;5009306;28;20124;-70
2021/06/01 02:45:06;;;;;;;1.63;0.90;;;15.20;69.20;;;;;;5024132;28;20055;-70
2021/06/01 02:47:34;;;;;;;0.77;0.70;;;15.10;69.50;;;;;;5025108;28;20461;-70
2021/06/01 02:50:08;;;;;;;1.52;0.95;;;15.00;69.50;;;;;;5021572;28;20085;-70
2021/06/01 02:52:36;;;;;;;1.15;0.80;;;15.00;69.70;;;;;;5028182;28;20084;-70
2021/06/01 02:55:04;;;;;;;;;;;14.90;69.80;;;;;;5027015;28;20046;-70
2021/06/01 02:57:31;;;;;;;;;;;14.80;70.50;;;;;;5044303;28;20047;-70
2021/06/01 02:59:58;;;;;;;0.98;0.70;;;14.80;70.60;;;;;;5046676;28;20383;-70
2021/06/01 03:02:29;;;;;;;1.70;0.70;;;14.80;69.60;;;;;;5034673;28;20076;-70
2021/06/01 03:04:56;;;;;;;1.20;0.90;;;14.70;69.70;;;;;;5052461;28;20068;-70
2021/06/01 03:07:23;;;;;;;2.50;0.80;;;14.70;69.80;;;;;;5048750;28;20073;-70
2021/06/01 03:09:50;;;;;;;2.83;1.17;;;14.60;70.00;;;;;;5053069;28;20069;-70
2021/06/01 03:14:59;;;;;;;3.08;0.95;;;14.50;70.20;;;;;;5050228;28;20072;-69
2021/06/01 03:17:26;;;;;;;1.70;0.90;;;14.50;70.40;;;;;;5048715;28;20072;-69
2021/06/01 03:19:53;;;;;;;1.70;0.82;;;14.50;70.50;;;;;;5060071;28;20067;-70
2021/06/01 03:22:20;;;;;;;2.22;0.88;;;14.40;70.40;;;;;;5044794;28;20065;-70
2021/06/01 03:24:47;;;;;;;3.05;1.02;;;14.40;70.80;;;;;;5043517;28;20081;-70
2021/06/01 03:27:14;;;;;;;2.40;1.00;;;14.40;70.80;;;;;;5049787;28;20127;-70
2021/06/01 03:29:41;;;;;;;2.35;1.00;;;14.40;71.00;;;;;;5052189;28;20073;-70
2021/06/01 03:32:08;;;;;;;3.42;0.98;;;14.30;70.80;;;;;;5040924;28;20119;-69
2021/06/01 03:34:35;;;;;;;0.80;0.80;;;14.30;70.90;;;;;;5046249;28;20095;-70
2021/06/01 03:37:02;;;;;;;1.35;0.80;;;14.30;70.90;;;;;;5029393;28;20078;-70
2021/06/01 03:39:31;;;;;;;1.02;0.93;;;14.30;71.10;;;;;;5026161;28;20079;-70
2021/06/01 03:41:58;;;;;;;2.90;0.85;;;14.30;71.10;;;;;;5048560;28;20040;-70
2021/06/01 03:44:25;;;;;;;1.63;1.00;;;14.20;71.20;;;;;;5043635;28;20167;-70
2021/06/01 03:46:52;;;;;;;2.90;1.10;;;14.20;71.30;;;;;;5064113;28;20076;-70
2021/06/01 03:49:18;;;;;;;2.85;1.00;;;14.10;71.40;;;;;;5053424;28;20650;-70
2021/06/01 03:51:45;;;;;;;1.85;1.10;;;14.10;71.50;;;;;;5054563;28;20084;-70
2021/06/01 03:54:12;;;;;;;1.63;1.02;;;14.20;72.40;;;;;;5050636;28;20056;-70
2021/06/01 03:56:39;;;;;;;1.83;1.10;;;14.20;71.90;;;;;;5047253;28;20493;-70
2021/06/01 03:59:05;;;;;;;0.93;0.80;;;14.20;72.00;;;;;;5050598;28;20055;-70
2021/06/01 04:01:32;;;;;;;2.97;0.98;;;14.30;72.30;;;;;;5049714;28;20068;-70
2021/06/01 04:04:36;;;;;;;3.22;1.00;;;14.30;72.60;;;;;;5047858;28;20045;-70
2021/06/01 04:07:04;;;;;;;2.70;1.10;;;14.40;72.80;;;;;;5043877;28;20099;-70
2021/06/01 04:09:31;;;;;;;1.73;1.00;;;14.40;72.70;;;;;;5049548;28;20098;-70
2021/06/01 04:11:58;;;;;;;1.90;1.10;;;14.50;73.60;;;;;;5033472;28;20116;-70
2021/06/01 04:14:27;;;;;;;2.80;1.08;;;14.60;73.10;;;;;;5044496;28;20044;-70
2021/06/01 04:16:55;;;;;;;2.00;0.90;;;14.60;73.20;;;;;;5048044;28;20124;-70
2021/06/01 04:19:23;;;;;;;1.83;1.27;;;14.70;73.30;;;;;;5049722;28;20527;-70
2021/06/01 04:21:52;;;;;;;1.58;1.20;;;14.70;73.40;;;;;;5049544;28;20072;-70
2021/06/01 04:24:26;;;;;;;1.05;0.95;;;14.80;73.50;;;;;;5057030;28;20138;-70
2021/06/01 04:27:00;;;;;;;2.08;0.85;;;14.90;73.70;;;;;;5051822;28;20052;-70
2021/06/01 04:29:28;;;;;;;1.65;1.10;;;14.90;73.70;;;;;;5054679;28;20548;-70
2021/06/01 04:31:55;;;;;;;3.28;1.20;;;15.00;73.80;;;;;;5068657;28;20131;-70
2021/06/01 04:34:22;;;;;;;3.90;1.60;;;15.10;73.80;;;;;;5048406;28;20049;-70
2021/06/01 04:36:49;;;;;;;2.10;1.02;;;15.20;73.80;;;;;;5059507;28;20048;-70
2021/06/01 04:39:16;;;;;;;4.20;1.17;;;15.30;73.90;;;;;;5046296;28;20080;-70
2021/06/01 04:41:43;;;;;;;2.13;1.40;;;15.40;73.90;;;;;;5055235;28;20203;-70
2021/06/01 04:44:09;;;;;;;3.33;1.48;;;15.60;74.00;;;;;;5047600;28;20076;-70
2021/06/01 04:46:36;;;;;;;1.95;1.27;;;15.70;74.00;;;;;;5027667;28;20046;-70
2021/06/01 04:49:03;;;;;;;2.20;1.30;;;15.80;74.00;;;;;;5048343;28;20152;-70
2021/06/01 04:51:30;;;;;;;12.50;1.50;;;15.90;74.10;;;;;;5051060;28;20044;-70
2021/06/01 04:53:59;;;;;;;4.07;1.50;;;16.00;74.00;;;;;;5050945;28;20045;-70
2021/06/01 04:56:27;;;;;;;4.35;1.55;;;16.10;74.00;;;;;;5049821;28;20053;-70
2021/06/01 04:58:55;;;;;;;3.08;1.35;;;16.20;74.00;;;;;;5044655;28;20131;-70
2021/06/01 05:01:23;;;;;;;3.47;2.08;;;16.40;74.20;;;;;;5046375;28;20048;-70
2021/06/01 05:03:50;;;;;;;2.35;1.40;;;16.40;74.20;;;;;;5053137;28;20045;-70
2021/06/01 05:06:17;;;;;;;3.78;1.52;;;16.50;74.20;;;;;;5046499;28;20120;-70
2021/06/01 05:08:45;;;;;;;3.80;1.65;;;16.60;74.30;;;;;;5043355;28;20133;-70
2021/06/01 05:11:11;;;;;;;3.63;1.40;;;16.70;74.50;;;;;;5058848;28;20095;-70
2021/06/01 05:13:38;;;;;;;2.60;1.40;;;16.80;74.70;;;;;;5050522;28;20110;-70
2021/06/01 05:16:06;;;;;;;2.33;1.40;;;16.80;74.60;;;;;;5043659;28;20485;-70
2021/06/01 05:18:33;;;;;;;;;;;17.00;74.80;;;;;;5056579;28;20048;-70
2021/06/01 05:21:04;;;;;;;2.75;1.40;;;17.00;74.80;;;;;;5040574;28;20003;-70
2021/06/01 05:23:31;;;;;;;4.72;1.60;;;17.10;74.80;;;;;;5049872;28;20069;-70
2021/06/01 05:25:58;;;;;;;2.53;1.55;;;17.20;75.00;;;;;;5038174;28;20081;-71
2021/06/01 05:28:25;;;;;;;4.75;1.80;;;17.20;75.00;;;;;;5024863;28;20076;-70
2021/06/01 05:33:30;;;;;;;3.10;1.75;;;17.40;75.10;;;;;;5045731;28;20050;-70
2021/06/01 05:35:57;;;;;;;4.57;1.88;;;17.50;75.20;;;;;;5038387;28;20050;-70
2021/06/01 05:38:26;;;;;;;4.00;1.95;;;17.50;75.10;;;;;;5052744;28;20115;-70
2021/06/01 05:40:54;;;;;;;3.42;1.90;;;17.60;75.30;;;;;;5034598;28;20065;-70
2021/06/01 05:43:22;;;;;;;4.78;2.20;;;17.60;75.20;;;;;;5030518;28;20077;-70
2021/06/01 05:45:49;;;;;;;3.78;1.95;;;17.70;75.40;;;;;;5034441;28;21358;-70
2021/06/01 05:48:17;;;;;;;2.75;1.77;;;17.70;75.40;;;;;;5062835;28;20064;-70
2021/06/01 05:50:44;;;;;;;4.70;1.70;;;17.80;75.40;;;;;;5041603;28;20195;-70
2021/06/01 05:53:16;;;;;;;3.47;1.67;;;17.90;75.50;;;;;;5046137;28;20160;-70
2021/06/01 05:55:44;;;;;;;4.70;1.65;;;18.00;75.60;;;;;;5033699;28;20054;-71
2021/06/01 05:58:12;;;;;;;4.07;1.88;;;18.10;75.60;;;;;;5049274;28;20798;-70
2021/06/01 06:00:39;;;;;;;3.25;1.50;;;18.10;75.60;;;;;;5059031;28;20061;-70
2021/06/01 06:03:06;;;;;;;3.88;1.67;;;18.20;75.70;;;;;;5055553;28;20049;-70
2021/06/01 06:05:33;;;;;;;2.63;1.50;;;18.20;75.70;;;;;;5042056;28;20044;-70
2021/06/01 06:08:12;;;;;;;2.63;1.73;;;18.30;75.70;;;;;;5052209;28;20044;-70
2021/06/01 06:10:40;;;;;;;4.35;1.70;;;18.30;75.70;;;;;;5043640;28;20455;-70
2021/06/01 06:13:08;;;;;;;6.13;1.90;;;18.40;75.80;;;;;;5030723;28;20049;-70
2021/06/01 06:15:35;;;;;;;4.88;2.03;;;18.50;75.70;;;;;;5053790;28;20075;-69
2021/06/01 06:18:06;;;;;;;5.73;1.83;;;18.50;75.50;;;;;;5032525;28;20068;-70
2021/06/01 06:20:34;;;;;;;9.40;2.10;;;18.60;75.80;;;;;;5043044;28;20300;-70
2021/06/01 06:23:01;;;;;;;2.83;1.65;;;18.60;75.90;;;;;;5032481;28;20059;-70
2021/06/01 06:25:28;;;;;;;4.78;2.03;;;18.70;76.20;;;;;;5024745;28;20632;-70
2021/06/01 06:27:56;;;;;;;4.07;1.80;;;18.70;76.40;;;;;;5054994;28;20044;-70
2021/06/01 06:30:24;;;;;;;3.72;2.20;;;18.90;76.40;;;;;;5061020;28;20811;-70
2021/06/01 06:32:51;;;;;;;4.20;2.00;;;18.90;76.30;;;;;;5057805;28;20091;-69
2021/06/01 06:35:19;;;;;;;3.67;2.28;;;19.00;76.10;;;;;;5065280;28;20051;-70
2021/06/01 06:37:46;;;;;;;2.83;1.88;;;19.00;76.00;;;;;;5048441;28;20069;-70
2021/06/01 06:40:14;;;;;;;3.05;1.90;;;19.00;75.90;;;;;;5044326;28;20044;-69
2021/06/01 06:42:42;;;;;;;4.82;2.10;;;19.10;76.00;;;;;;5050803;28;20643;-70
2021/06/01 06:45:13;;;;;;;3.58;1.85;;;19.10;76.10;;;;;;5056173;28;20511;-70
2021/06/01 06:50:20;;;;;;;2.58;1.65;;;19.20;75.80;;;;;;5048701;28;20160;-70
2021/06/01 06:52:47;;;;;;;3.75;1.70;;;19.20;75.70;;;;;;5029781;28;20135;-70
2021/06/01 06:55:16;;;;;;;6.47;2.50;;;19.30;76.00;;;;;;5052563;28;20056;-70
2021/06/01 06:57:43;;;;;;;5.47;2.97;;;19.40;76.10;;;;;;5058505;28;20080;-70
2021/06/01 07:00:13;;;;;;;3.47;2.22;;;19.50;76.10;;;;;;5058208;28;20098;-70
2021/06/01 07:02:42;;;;;;;3.60;2.10;;;19.50;75.90;;;;;;5051834;28;20120;-70
2021/06/01 07:05:12;;;;;;;2.67;1.80;;;19.50;75.90;;;;;;5051175;28;20135;-70
2021/06/01 07:07:39;;;;;;;3.67;2.08;;;19.60;76.00;;;;;;5051814;28;20041;-70
2021/06/01 07:10:07;;;;;;;2.97;1.90;;;19.60;75.90;;;;;;5049186;28;20322;-70
2021/06/01 07:12:34;;;;;;;3.65;1.90;;;19.70;75.80;;;;;;5017341;28;20132;-71
2021/06/01 07:15:11;;;;;;;4.00;1.95;;;19.70;76.60;;;;;;5029590;28;20049;-70
2021/06/01 07:17:42;;;;;;;3.88;2.10;;;19.80;76.20;;;;;;5046146;28;20216;-70
2021/06/01 07:20:11;;;;;;;3.05;1.92;;;19.90;76.20;;;;;;5045898;28;20084;-70
2021/06/01 07:22:38;;;;;;;4.13;2.47;;;19.90;76.90;;;;;;5045896;28;20454;-70
2021/06/01 07:25:06;;;;;;;4.43;2.70;;;20.00;75.90;;;;;;5051858;28;20088;-70
2021/06/01 07:27:33;;;;;;;3.75;2.10;;;20.00;75.90;;;;;;5058591;28;20073;-70
2021/06/01 07:29:59;;;;;;;5.22;2.03;;;20.00;76.30;;;;;;5056448;28;20052;-70
2021/06/01 07:32:26;;;;;;;5.63;2.72;;;20.10;76.60;;;;;;5073424;28;20075;-70
2021/06/01 07:34:53;;;;;;;5.28;2.58;;;20.20;76.40;;;;;;5048830;28;20416;-70
2021/06/01 07:37:20;;;;;;;5.82;2.60;;;20.30;75.90;;;;;;5050663;28;20075;-70
2021/06/01 07:39:46;;;;;;;4.25;2.88;;;20.20;75.50;;;;;;5049597;28;20474;-70
2021/06/01 07:42:13;;;;;;;6.10;3.22;;;20.20;75.70;;;;;;5045849;28;20038;-71
2021/06/01 07:44:40;;;;;;;5.00;2.90;;;20.20;75.20;;;;;;5058406;28;20475;-70
2021/06/01 07:47:06;;;;;;;4.63;2.70;;;20.20;75.20;;;;;;5044502;28;20552;-70
2021/06/01 07:49:33;;;;;;;3.80;2.38;;;20.20;75.70;;;;;;5032714;28;20391;-69
2021/06/01 07:52:03;;;;;;;3.95;2.80;;;20.30;76.10;;;;;;5043204;28;20420;-70
2021/06/01 07:54:32;;;;;;;4.03;2.60;;;20.30;75.90;;;;;;5033573;28;20492;-69
2021/06/01 07:56:59;;;;;;;6.95;2.90;;;20.40;75.40;;;;;;5048653;28;20350;-69
2021/06/01 07:59:25;;;;;;;5.65;2.90;;;20.40;75.40;;;;;;5041970;28;20136;-70
2021/06/01 08:01:52;;;;;;;4.22;2.85;;;20.40;75.20;;;;;;5037773;28;20128;-70
2021/06/01 08:04:19;;;;;;;5.15;2.80;;;20.50;75.70;;;;;;5037532;28;20045;-69
2021/06/01 08:06:46;;;;;;;6.07;2.60;;;20.50;74.70;;;;;;5035772;28;20496;-70
2021/06/01 08:09:12;;;;;;;4.22;2.33;;;20.50;75.30;;;;;;5041054;28;20434;-70
2021/06/01 08:11:40;;;;;;;6.32;2.40;;;20.60;75.80;;;;;;5038182;28;20075;-69
2021/06/01 08:14:07;;;;;;;3.13;1.98;;;20.70;76.00;;;;;;5037683;28;20394;-70
2021/06/01 08:16:34;;;;;;;5.65;2.58;;;20.80;76.20;;;;;;5029162;28;20484;-70
2021/06/01 08:19:13;;;;;;;6.03;2.80;;;20.90;75.90;;;;;;5032916;28;20071;-70
2021/06/01 08:21:57;;;;;;;4.68;2.30;;;21.00;75.50;;;;;;5036512;28;20411;-71
2021/06/01 08:24:24;;;;;;;4.97;2.30;;;21.00;75.50;;;;;;5035923;28;20127;-70
2021/06/01 08:26:51;;;;;;;3.80;2.20;;;21.10;76.10;;;;;;5037267;28;20081;-70
2021/06/01 08:29:18;;;;;;;5.30;2.50;;;21.10;76.00;;;;;;5027222;28;20394;-70
2021/06/01 08:31:46;;;;;;;6.25;2.35;;;21.20;76.00;;;;;;5040915;28;20346;-71
2021/06/01 08:34:13;;;;;;;;;;;21.30;75.80;;;;;;5037769;28;20439;-70
2021/06/01 08:36:40;;;;;;;3.38;2.25;;;21.30;75.00;;;;;;5043930;28;19982;-70
2021/06/01 08:39:08;;;;;;;5.85;2.65;;;21.30;75.50;;;;;;5032315;28;20052;-70
2021/06/01 08:41:36;;;;;;;5.68;2.45;;;21.30;74.80;;;;;;5042370;28;20440;-70
2021/06/01 08:44:05;;;;;;;3.05;2.10;;;21.30;75.20;;;;;;5029012;28;20077;-70
2021/06/01 08:46:33;;;;;;;3.72;1.83;;;21.40;75.20;;;;;;5033330;28;20041;-70
2021/06/01 08:49:00;;;;;;;4.75;2.10;;;21.40;75.40;;;;;;5037926;28;20045;-70
2021/06/01 08:51:27;;;;;;;4.25;2.40;;;21.40;75.50;;;;;;5023463;28;20084;-70
2021/06/01 08:53:58;;;;;;;3.53;2.00;;;21.50;75.70;;;;;;5028880;28;20102;-72
2021/06/01 08:56:26;;;;;;;3.70;2.00;;;21.60;75.80;;;;;;5038003;28;20493;-70
2021/06/01 08:58:53;;;;;;;4.30;2.05;;;21.70;75.90;;;;;;5060878;28;20091;-70
2021/06/01 09:01:21;;;;;;;3.95;1.90;;;21.70;75.30;;;;;;5038682;28;20076;-70
2021/06/01 09:03:54;;;;;;;3.67;1.98;;;21.80;75.50;;;;;;5045111;28;20065;-70
2021/06/01 09:06:41;;;;;;;3.42;2.03;;;21.90;75.70;;;;;;5054598;28;20100;-71
2021/06/01 09:09:23;;;;;;;4.82;1.80;;;22.00;73.70;;;;;;5035536;28;20085;-70
2021/06/01 09:12:26;;;;;;;3.33;1.83;;;22.00;73.40;;;;;;5047504;28;20080;-71
2021/06/01 09:22:54;;;;;;;1.85;1.40;;;22.20;73.80;;;;;;5034745;28;20198;-69
2021/06/01 09:25:42;;;;;;;3.20;1.88;;;22.30;74.30;;;;;;5037150;28;20046;-70
2021/06/01 09:28:15;;;;;;;4.32;1.50;;;22.30;72.70;;;;;;5040353;28;20073;-70
2021/06/01 09:30:54;;;;;;;3.35;1.70;;;22.30;72.60;;;;;;5036573;28;20145;-70
2021/06/01 09:33:22;;;;;;;5.30;1.50;;;22.30;72.20;;;;;;5038640;28;20049;-70
2021/06/01 09:36:05;;;;;;;2.28;1.60;;;22.30;72.60;;;;;;5035126;28;20087;-70
2021/06/01 09:38:44;;;;;;;2.33;1.48;;;22.30;70.50;;;;;;5035599;28;20076;-70
2021/06/01 09:41:31;;;;;;;2.63;1.60;;;22.40;71.10;;;;;;5037656;28;20037;-70
2021/06/01 09:44:05;;;;;;;4.35;1.80;;;22.30;69.40;;;;;;5030452;28;20568;-70
2021/06/01 09:46:35;;;;;;;4.13;1.50;;;22.30;70.00;;;;;;5036882;28;20073;-71
2021/06/01 09:49:17;;;;;;;3.30;1.40;;;22.30;69.40;;;;;;5038753;28;20128;-70
2021/06/01 09:51:57;;;;;;;2.53;1.40;;;22.30;68.00;;;;;;5035533;28;20045;-70
2021/06/01 09:54:49;;;;;;;2.53;1.35;;;22.40;68.20;;;;;;5033679;28;20136;-70
2021/06/01 09:57:16;;;;;;;2.90;1.63;;;22.50;68.50;;;;;;5036209;28;20582;-70
2021/06/01 10:00:24;;;;;;;2.13;1.40;;;22.50;68.40;;;;;;5039695;28;20389;-70
2021/06/01 10:02:52;;;;;;;1.83;1.25;;;22.60;68.30;;;;;;5039512;28;20099;-70
2021/06/01 10:05:27;;;;;;;3.97;1.65;;;22.70;69.00;;;;;;5043857;28;20470;-70
2021/06/01 10:07:56;;;;;;;4.60;1.80;;;22.80;68.60;;;;;;5030322;28;20084;-71
2021/06/01 10:10:25;;;;;;;2.78;1.45;;;22.90;68.40;;;;;;5031070;28;20145;-71
2021/06/01 10:12:54;;;;;;;3.03;1.70;;;22.90;67.40;;;;;;5030323;28;20428;-71
2021/06/01 10:15:24;;;;;;;2.20;1.45;;;23.00;68.10;;;;;;5038840;28;20092;-70
2021/06/01 10:18:00;;;;;;;2.47;1.58;;;23.00;67.40;;;;;;5039926;28;20417;-71
2021/06/01 10:20:31;;;;;;;3.58;1.60;;;23.10;66.80;;;;;;5036128;28;20099;-71
2021/06/01 10:22:59;;;;;;;2.88;1.73;;;23.10;67.20;;;;;;5038056;28;20053;-70
2021/06/01 10:25:26;;;;;;;;;;;23.10;66.60;;;;;;5036420;28;20084;-70
2021/06/01 10:27:58;;;;;;;2.47;1.33;;;23.10;66.90;;;;;;5040258;28;20002;-70
2021/06/01 10:30:26;;;;;;;3.42;1.92;;;23.20;67.60;;;;;;5033907;28;20223;-70
2021/06/01 10:32:58;;;;;;;4.40;1.95;;;23.20;64.90;;;;;;5037873;28;20158;-71
2021/06/01 10:35:29;;;;;;;3.38;1.85;;;23.20;64.40;;;;;;5035758;28;20057;-70
2021/06/01 10:44:34;;;;;;;3.03;1.48;;;23.20;65.60;;;;;;5035815;28;20087;-70
2021/06/01 10:50:33;;;;;;;2.53;1.20;;;23.30;65.50;;;;;;5035294;28;20080;-70
2021/06/01 10:53:14;;;;;;;3.65;2.05;;;23.40;65.80;;;;;;5029001;28;20130;-71
2021/06/01 10:58:23;;;;;;;3.47;1.50;;;23.40;64.90;;;;;;5037623;28;20073;-71
2021/06/01 11:04:20;;;;;;;2.17;1.60;;;23.60;63.60;;;;;;5047271;28;20068;-71
2021/06/01 11:09:47;;;;;;;2.95;1.50;;;23.60;63.80;;;;;;5042632;28;20454;-71
2021/06/01 11:12:15;;;;;;;2.22;1.45;;;23.60;63.10;;;;;;5055020;28;20048;-71
2021/06/01 11:14:43;;;;;;;4.00;1.60;;;23.60;63.60;;;;;;5043437;28;20052;-70
2021/06/01 11:17:10;;;;;;;1.80;1.10;;;23.60;63.50;;;;;;5042963;28;20116;-71
2021/06/01 11:20:05;;;;;;;2.60;1.47;;;23.70;63.70;;;;;;5058858;28;20123;-71
2021/06/01 11:22:42;;;;;;;3.40;1.23;;;23.70;63.40;;;;;;5047950;28;20076;-73
2021/06/01 11:33:35;;;;;;;1.90;1.35;;;24.00;62.80;;;;;;5045654;28;20049;-70
2021/06/01 11:36:11;;;;;;;3.28;1.27;;;24.00;63.70;;;;;;5042488;28;20128;-71
2021/06/01 11:42:46;;;;;;;1.85;1.38;;;24.00;62.80;;;;;;5036144;28;20073;-71
2021/06/01 11:44:33;;;;;;;3.97;1.48;;;24.10;61.80;;;;;;5038133;28;20041;-71
2021/06/01 11:52:28;;;;;;;3.88;1.60;;;24.00;61.40;;;;;;5038889;28;20128;-70
2021/06/01 11:55:05;;;;;;;2.35;1.52;;;24.10;61.40;;;;;;5047853;28;20075;-71
2021/06/01 11:57:42;;;;;;;3.42;1.50;;;24.20;61.10;;;;;;5019482;28;20049;-71
2021/06/01 12:03:06;;;;;;;2.38;1.48;;;24.20;61.20;;;;;;5013318;28;20056;-70
2021/06/01 12:11:22;;;;;;;2.30;1.20;;;24.30;59.80;;;;;;5033262;28;20076;-70
2021/06/01 12:14:02;;;;;;;3.03;1.80;;;24.40;60.20;;;;;;5037470;28;20467;-70
2021/06/01 12:19:16;;;;;;;7.45;1.88;;;24.50;59.00;;;;;;5020740;28;20414;-70
2021/06/01 12:21:46;;;;;;;2.47;1.40;;;24.50;59.50;;;;;;5017810;28;20153;-71
2021/06/01 12:24:18;;;;;;;2.90;1.55;;;24.50;59.00;;;;;;5021591;28;20761;-71
2021/06/01 13:07:19;;;;;;;2.70;1.40;;;24.70;54.30;;;;;;5034277;28;20074;-70
2021/06/01 13:20:39;;;;;;;4.55;1.83;;;24.80;54.60;;;;;;5043961;28;20457;-70
2021/06/01 13:36:56;;;;;;;5.72;1.70;;;25.00;54.40;;;;;;5020866;28;20135;-70
2021/06/01 13:39:33;;;;;;;;;;;25.00;54.50;;;;;;5032659;28;20434;-70
2021/06/01 13:47:19;;;;;;;2.78;1.65;;;25.10;53.40;;;;;;5020787;28;20129;-70
2021/06/01 13:50:03;;;;;;;2.47;1.88;;;25.10;53.50;;;;;;5034160;28;20171;-70
2021/06/01 13:52:53;;;;;;;4.45;1.88;;;25.10;53.60;;;;;;5032202;28;20128;-70
2021/06/01 13:55:30;;;;;;;3.30;1.90;;;25.20;53.80;;;;;;5029517;28;20077;-71
2021/06/01 14:37:15;;;;;;;2.50;1.70;;;25.70;54.60;;;;;;5053045;28;20136;-70
2021/06/01 15:24:12;;;;;;;4.30;1.92;;;26.30;53.90;;;;;;5051391;28;20152;-71
2021/06/01 15:28:57;;;;;;;3.22;1.88;;;26.30;53.40;;;;;;5032536;28;20084;-70
2021/06/01 15:53:30;;;;;;;2.27;1.67;;;26.80;53.50;;;;;;5039667;28;20132;-70
2021/06/01 16:29:38;;;;;;;3.63;1.65;;;28.90;52.20;;;;;;5046747;28;20080;-70
2021/06/01 17:05:33;;;;;;;1.95;1.38;;;30.10;53.40;;;;;;5055620;28;20087;-70
2021/06/01 17:11:17;;;;;;;3.20;1.45;;;29.60;54.00;;;;;;5045543;28;20137;-70
2021/06/01 17:13:45;;;;;;;5.97;1.60;;;29.40;54.00;;;;;;5053996;28;20091;-70
2021/06/01 17:16:23;;;;;;;4.63;1.40;;;29.20;53.10;;;;;;5052020;28;20049;-70
2021/06/01 17:34:54;;;;;;;3.35;1.40;;;28.30;50.30;;;;;;5039294;28;20404;-70
2021/06/01 17:37:21;;;;;;;1.77;1.40;;;28.20;49.80;;;;;;5045790;28;20131;-70
2021/06/01 17:39:48;;;;;;;2.22;1.50;;;28.10;49.80;;;;;;5042208;28;20135;-69
2021/06/01 17:42:18;;;;;;;4.57;1.60;;;28.10;49.90;;;;;;5044118;28;20100;-71
2021/06/01 17:44:48;;;;;;;3.50;1.38;;;28.00;49.60;;;;;;5042797;28;20299;-70
2021/06/01 17:47:27;;;;;;;2.53;1.58;;;28.00;49.50;;;;;;5074069;28;20045;-70
2021/06/01 17:49:56;;;;;;;1.90;1.42;;;27.90;49.20;;;;;;5052435;28;20460;-70
2021/06/01 17:52:29;;;;;;;2.10;1.70;;;27.90;49.30;;;;;;5052161;28;20052;-70
2021/06/01 17:54:57;;;;;;;2.20;1.58;;;27.80;49.10;;;;;;5041071;28;20444;-70
2021/06/01 17:57:27;;;;;;;2.42;1.50;;;27.70;49.00;;;;;;5059395;28;20186;-70
2021/06/01 17:59:57;;;;;;;1.85;1.40;;;27.70;49.00;;;;;;5065550;28;20131;-70
2021/06/01 18:02:24;;;;;;;2.70;1.60;;;27.60;48.80;;;;;;5039254;28;20041;-69
2021/06/01 18:04:54;;;;;;;4.55;1.80;;;27.60;48.60;;;;;;5055741;28;20040;-70
2021/06/01 18:07:41;;;;;;;2.55;1.50;;;27.50;48.30;;;;;;5056276;28;20467;-70
2021/06/01 18:35:43;;;;;;;2.00;1.38;;;26.80;48.10;;;;;;5050735;28;20721;-70
2021/06/01 18:40:46;;;;;;;4.78;1.40;;;26.80;48.00;;;;;;5057340;28;20091;-70
2021/06/01 18:41:29;;;;;;;2.47;1.30;;;26.70;47.90;;;;;;5051246;28;20076;-70
2021/06/01 19:06:29;;;;;;;2.40;1.40;;;26.00;47.70;;;;;;5039531;28;20085;-70
2021/06/01 19:28:20;;;;;;;4.22;1.85;;;24.90;50.30;;;;;;5013075;28;20523;-71
2021/06/01 19:50:29;;;;;;;1.65;1.40;;;23.40;51.80;;;;;;5052542;28;20140;-70
2021/06/01 19:52:57;;;;;;;2.58;1.45;;;23.20;51.80;;;;;;5051032;28;20477;-70
2021/06/01 19:55:25;;;;;;;;;;;23.00;52.00;;;;;;5048168;28;20064;-70
2021/06/01 19:57:52;;;;;;;;;;;22.90;52.60;;;;;;5032242;28;19974;-70
2021/06/01 20:00:21;;;;;;;2.58;1.58;;;22.70;51.90;;;;;;5037822;28;19968;-70
2021/06/01 20:02:49;;;;;;;1.95;1.48;;;22.60;51.60;;;;;;5036249;28;20140;-70